createdAt,value
2018-02-21T05:00:41.236Z,1018.67
2018-02-21T05:01:06.683Z,1018.68
2018-02-21T05:01:32.182Z,1018.65
2018-02-21T05:01:57.635Z,1018.64
2018-02-21T05:02:23.123Z,1018.62
2018-02-21T05:02:48.631Z,1018.63
2018-02-21T05:03:14.124Z,1018.64
2018-02-21T05:03:39.734Z,1018.64
2018-02-21T05:04:05.307Z,1018.59
2018-02-21T05:04:30.785Z,1018.58
2018-02-21T05:04:56.324Z,1018.6
2018-02-21T05:05:21.911Z,1018.58
2018-02-21T05:05:47.390Z,1018.56
2018-02-21T05:06:12.940Z,1018.57
2018-02-21T05:06:38.531Z,1018.61
2018-02-21T05:07:03.947Z,1018.58
2018-02-21T05:07:29.416Z,1018.56
2018-02-21T05:07:54.892Z,1018.58
2018-02-21T05:09:09.039Z,1018.53
2018-02-21T05:09:34.528Z,1018.6
2018-02-21T05:10:00.022Z,1018.56
2018-02-21T05:10:25.528Z,1018.57
2018-02-21T05:10:51.048Z,1018.56
2018-02-21T05:11:16.522Z,1018.62
2018-02-21T05:11:42.358Z,1018.55
2018-02-21T05:12:08.145Z,1018.56
2018-02-21T05:12:33.460Z,1018.58
2018-02-21T05:12:59.128Z,1018.54
2018-02-21T05:13:24.559Z,1018.59
2018-02-21T05:13:50.044Z,1018.59
2018-02-21T05:14:15.507Z,1018.59
2018-02-21T05:14:41.004Z,1018.56
2018-02-21T05:15:06.490Z,1018.59
2018-02-21T05:15:31.934Z,1018.62
2018-02-21T05:15:57.430Z,1018.62
2018-02-21T05:16:22.988Z,1018.58
2018-02-21T05:16:48.490Z,1018.58
2018-02-21T05:17:13.967Z,1018.64
2018-02-21T05:17:39.478Z,1018.64
2018-02-21T05:18:04.969Z,1018.65
2018-02-21T05:18:30.438Z,1018.65
2018-02-21T05:18:55.910Z,1018.6
2018-02-21T05:19:21.386Z,1018.65
2018-02-21T05:19:46.998Z,1018.62
2018-02-21T05:20:12.449Z,1018.67
2018-02-21T05:21:21.549Z,1018.7
2018-02-21T05:21:47.050Z,1018.66
2018-02-21T05:22:12.555Z,1018.63
2018-02-21T05:22:38.045Z,1018.64
2018-02-21T05:23:03.491Z,1018.67
2018-02-21T05:23:29.043Z,1018.67
2018-02-21T05:23:54.541Z,1018.63
2018-02-21T05:24:20.013Z,1018.66
2018-02-21T05:24:45.522Z,1018.66
2018-02-21T05:25:10.996Z,1018.63
2018-02-21T05:25:36.721Z,1018.67
2018-02-21T05:26:02.001Z,1018.68
2018-02-21T05:26:27.459Z,1018.65
2018-02-21T05:26:52.906Z,1018.67
2018-02-21T05:27:18.408Z,1018.6
2018-02-21T05:27:43.886Z,1018.63
2018-02-21T05:28:09.381Z,1018.67
2018-02-21T05:28:34.904Z,1018.64
2018-02-21T05:29:00.389Z,1018.62
2018-02-21T05:29:25.906Z,1018.63
2018-02-21T05:29:51.369Z,1018.65
2018-02-21T05:30:16.830Z,1018.64
2018-02-21T05:30:42.340Z,1018.65
2018-02-21T05:31:07.828Z,1018.7
2018-02-21T05:31:33.333Z,1018.65
2018-02-21T05:31:58.827Z,1018.67
2018-02-21T05:32:24.312Z,1018.67
2018-02-21T05:32:49.770Z,1018.63
2018-02-21T05:33:15.332Z,1018.7
2018-02-21T05:33:40.902Z,1018.67
2018-02-21T05:34:06.356Z,1018.69
2018-02-21T05:34:31.815Z,1018.67
2018-02-21T05:34:57.326Z,1018.67
2018-02-21T05:35:22.824Z,1018.66
2018-02-21T05:35:48.392Z,1018.67
2018-02-21T05:36:14.006Z,1018.66
2018-02-21T05:36:39.399Z,1018.7
2018-02-21T05:37:04.898Z,1018.71
2018-02-21T05:37:30.340Z,1018.7
2018-02-21T05:37:55.887Z,1018.67
2018-02-21T05:38:21.411Z,1018.7
2018-02-21T05:38:46.955Z,1018.72
2018-02-21T05:39:12.504Z,1018.72
2018-02-21T05:39:38.153Z,1018.73
2018-02-21T05:40:03.594Z,1018.78
2018-02-21T05:40:29.106Z,1018.78
2018-02-21T05:40:54.657Z,1018.82
2018-02-21T05:41:20.205Z,1018.79
2018-02-21T05:41:45.708Z,1018.81
2018-02-21T05:42:11.173Z,1018.86
2018-02-21T05:42:36.631Z,1018.84
2018-02-21T05:43:02.156Z,1018.87
2018-02-21T05:43:27.658Z,1018.88
2018-02-21T05:43:53.122Z,1018.91
2018-02-21T05:44:18.597Z,1018.94
2018-02-21T05:44:44.062Z,1018.91
2018-02-21T05:45:09.550Z,1018.96
2018-02-21T05:45:35.044Z,1018.97
2018-02-21T05:46:00.544Z,1018.95
2018-02-21T05:46:26.036Z,1019.03
2018-02-21T05:46:51.541Z,1019
2018-02-21T05:47:17.046Z,1019.02
2018-02-21T05:47:42.524Z,1019
2018-02-21T05:48:08.094Z,1019.04
2018-02-21T05:48:33.662Z,1019
2018-02-21T05:48:59.099Z,1019
2018-02-21T05:49:24.578Z,1019.05
2018-02-21T05:49:50.138Z,1019.06
2018-02-21T05:50:16.032Z,1019.03
2018-02-21T05:50:41.222Z,1019.02
2018-02-21T05:51:06.664Z,1019.08
2018-02-21T05:51:32.153Z,1019.02
2018-02-21T05:51:57.608Z,1019.09
2018-02-21T05:52:23.106Z,1019.06
2018-02-21T05:53:26.757Z,1019.08
2018-02-21T05:53:52.320Z,1019.07
2018-02-21T05:54:17.788Z,1019.09
2018-02-21T05:54:43.278Z,1019.07
2018-02-21T05:55:08.758Z,1019.04
2018-02-21T05:55:34.213Z,1019.1
2018-02-21T05:55:59.723Z,1019.1
2018-02-21T05:56:25.175Z,1019.13
2018-02-21T05:56:50.637Z,1019.09
2018-02-21T05:57:16.125Z,1019.1
2018-02-21T05:57:41.610Z,1019.08
2018-02-21T05:58:07.095Z,1019.09
2018-02-21T05:58:32.610Z,1019.07
2018-02-21T05:58:58.039Z,1019.11
2018-02-21T05:59:56.557Z,1019.06
2018-02-21T06:00:22.023Z,1019.05
2018-02-21T06:00:47.556Z,1019.05
2018-02-21T06:01:13.021Z,1019.05
2018-02-21T06:01:38.436Z,1019.05
2018-02-21T06:02:03.896Z,1019.07
2018-02-21T06:02:29.533Z,1019.07
2018-02-21T06:02:54.945Z,1019.08
2018-02-21T06:03:20.452Z,1019.1
2018-02-21T06:03:45.958Z,1019.14
2018-02-21T06:04:11.416Z,1019.08
2018-02-21T06:04:37.017Z,1019.1
2018-02-21T06:05:02.493Z,1019.13
2018-02-21T06:05:27.994Z,1019.18
2018-02-21T06:05:53.495Z,1019.18
2018-02-21T06:06:19.015Z,1019.18
2018-02-21T06:06:44.449Z,1019.22
2018-02-21T06:07:09.964Z,1019.22
2018-02-21T06:07:35.436Z,1019.25
2018-02-21T06:08:00.935Z,1019.26
2018-02-21T06:08:26.400Z,1019.3
2018-02-21T06:08:51.860Z,1019.31
2018-02-21T06:09:17.378Z,1019.32
2018-02-21T06:09:42.856Z,1019.31
2018-02-21T06:10:08.425Z,1019.34
2018-02-21T06:10:33.942Z,1019.32
2018-02-21T06:10:59.397Z,1019.3
2018-02-21T06:11:24.946Z,1019.28
2018-02-21T06:11:50.356Z,1019.3
2018-02-21T06:12:15.845Z,1019.31
2018-02-21T06:12:41.335Z,1019.3
2018-02-21T06:13:06.764Z,1019.32
2018-02-21T06:13:32.205Z,1019.27
2018-02-21T06:13:57.693Z,1019.25
2018-02-21T06:14:23.187Z,1019.29
2018-02-21T06:14:48.702Z,1019.31
2018-02-21T06:15:14.250Z,1019.29
2018-02-21T06:15:39.635Z,1019.34
2018-02-21T06:16:05.190Z,1019.3
2018-02-21T06:16:30.701Z,1019.33
2018-02-21T06:16:56.136Z,1019.35
2018-02-21T06:17:21.624Z,1019.34
2018-02-21T06:17:47.095Z,1019.32
2018-02-21T06:18:12.571Z,1019.32
2018-02-21T06:18:38.039Z,1019.38
2018-02-21T06:19:03.541Z,1019.36
2018-02-21T06:19:29.014Z,1019.38
2018-02-21T06:19:54.528Z,1019.37
2018-02-21T06:20:20.019Z,1019.39
2018-02-21T06:20:45.508Z,1019.41
2018-02-21T06:21:10.970Z,1019.38
2018-02-21T06:21:36.502Z,1019.39
2018-02-21T06:22:46.181Z,1019.38
2018-02-21T06:23:11.687Z,1019.4
2018-02-21T06:23:37.200Z,1019.44
2018-02-21T06:24:02.735Z,1019.49
2018-02-21T06:24:28.227Z,1019.44
2018-02-21T06:24:53.663Z,1019.47
2018-02-21T06:25:19.066Z,1019.48
2018-02-21T06:25:44.574Z,1019.5
2018-02-21T06:26:10.113Z,1019.46
2018-02-21T06:26:35.635Z,1019.51
2018-02-21T06:27:01.054Z,1019.49
2018-02-21T06:27:26.502Z,1019.48
2018-02-21T06:27:51.984Z,1019.48
2018-02-21T06:28:17.761Z,1019.52
2018-02-21T06:28:43.188Z,1019.49
2018-02-21T06:29:08.657Z,1019.51
2018-02-21T06:29:34.136Z,1019.51
2018-02-21T06:29:59.608Z,1019.49
2018-02-21T06:30:25.089Z,1019.52
2018-02-21T06:30:50.553Z,1019.52
2018-02-21T06:31:16.067Z,1019.55
2018-02-21T06:31:41.533Z,1019.51
2018-02-21T06:32:07.016Z,1019.52
2018-02-21T06:32:32.493Z,1019.53
2018-02-21T06:32:57.961Z,1019.5
2018-02-21T06:33:23.464Z,1019.53
2018-02-21T06:33:48.957Z,1019.54
2018-02-21T06:34:14.475Z,1019.47
2018-02-21T06:34:39.948Z,1019.49
2018-02-21T06:35:05.436Z,1019.49
2018-02-21T06:35:30.872Z,1019.5
2018-02-21T06:35:56.416Z,1019.54
2018-02-21T06:36:21.913Z,1019.5
2018-02-21T06:36:47.393Z,1019.47
2018-02-21T06:37:12.884Z,1019.48
2018-02-21T06:37:38.403Z,1019.52
2018-02-21T06:38:03.882Z,1019.48
2018-02-21T06:38:29.399Z,1019.5
2018-02-21T06:38:54.945Z,1019.44
2018-02-21T06:39:20.434Z,1019.42
2018-02-21T06:39:45.931Z,1019.44
2018-02-21T06:40:11.456Z,1019.44
2018-02-21T06:40:36.930Z,1019.41
2018-02-21T06:41:02.503Z,1019.42
2018-02-21T06:41:27.967Z,1019.43
2018-02-21T06:41:53.438Z,1019.42
2018-02-21T06:42:18.936Z,1019.41
2018-02-21T06:43:22.901Z,1019.4
2018-02-21T06:43:48.431Z,1019.38
2018-02-21T06:44:13.874Z,1019.38
2018-02-21T06:44:39.369Z,1019.34
2018-02-21T06:45:04.825Z,1019.35
2018-02-21T06:45:30.349Z,1019.35
2018-02-21T06:45:55.840Z,1019.32
2018-02-21T06:46:21.310Z,1019.34
2018-02-21T06:46:46.840Z,1019.36
2018-02-21T06:47:13.295Z,1019.34
2018-02-21T06:47:38.761Z,1019.37
2018-02-21T06:48:04.293Z,1019.33
2018-02-21T06:48:29.758Z,1019.36
2018-02-21T06:48:55.223Z,1019.35
2018-02-21T06:49:20.708Z,1019.32
2018-02-21T06:49:46.228Z,1019.3
2018-02-21T06:50:11.703Z,1019.3
2018-02-21T06:50:37.220Z,1019.27
2018-02-21T06:51:02.746Z,1019.3
2018-02-21T06:51:28.334Z,1019.25
2018-02-21T06:51:53.754Z,1019.27
2018-02-21T06:52:19.230Z,1019.2
2018-02-21T06:52:44.708Z,1019.19
2018-02-21T06:53:10.183Z,1019.21
2018-02-21T06:53:35.681Z,1019.22
2018-02-21T06:54:01.143Z,1019.18
2018-02-21T06:54:26.675Z,1019.17
2018-02-21T06:54:52.192Z,1019.19
2018-02-21T06:56:05.957Z,1019.21
2018-02-21T06:56:31.454Z,1019.21
2018-02-21T06:56:56.955Z,1019.17
2018-02-21T06:57:22.433Z,1019.22
2018-02-21T06:57:47.890Z,1019.19
2018-02-21T06:58:46.382Z,1019.19
2018-02-21T06:59:11.881Z,1019.25
2018-02-21T06:59:37.381Z,1019.22
2018-02-21T07:00:02.811Z,1019.26
2018-02-21T07:00:28.272Z,1019.24
2018-02-21T07:00:53.752Z,1019.25
2018-02-21T07:01:19.257Z,1019.27
2018-02-21T07:01:44.758Z,1019.3
2018-02-21T07:02:10.288Z,1019.3
2018-02-21T07:02:35.858Z,1019.31
2018-02-21T07:03:01.324Z,1019.32
2018-02-21T07:03:26.840Z,1019.32
2018-02-21T07:03:52.319Z,1019.28
2018-02-21T07:04:17.807Z,1019.36
2018-02-21T07:04:43.266Z,1019.3
2018-02-21T07:05:08.734Z,1019.36
2018-02-21T07:05:34.245Z,1019.35
2018-02-21T07:05:59.719Z,1019.33
2018-02-21T07:06:25.179Z,1019.33
2018-02-21T07:06:50.658Z,1019.33
2018-02-21T07:07:16.194Z,1019.26
2018-02-21T07:07:41.717Z,1019.3
2018-02-21T07:08:07.221Z,1019.31
2018-02-21T07:08:32.659Z,1019.28
2018-02-21T07:08:58.179Z,1019.29
2018-02-21T07:09:23.646Z,1019.32
2018-02-21T07:09:49.122Z,1019.3
2018-02-21T07:10:14.628Z,1019.29
2018-02-21T07:10:40.082Z,1019.27
2018-02-21T07:11:05.532Z,1019.27
2018-02-21T07:11:31.066Z,1019.31
2018-02-21T07:11:56.532Z,1019.32
2018-02-21T07:12:22.041Z,1019.33
2018-02-21T07:12:47.509Z,1019.33
2018-02-21T07:13:13.016Z,1019.33
2018-02-21T07:13:38.461Z,1019.33
2018-02-21T07:14:03.976Z,1019.33
2018-02-21T07:14:29.442Z,1019.37
2018-02-21T07:14:54.930Z,1019.35
2018-02-21T07:15:20.452Z,1019.37
2018-02-21T07:15:45.895Z,1019.37
2018-02-21T07:16:11.398Z,1019.4
2018-02-21T07:17:20.063Z,1019.37
2018-02-21T07:17:45.576Z,1019.37
2018-02-21T07:18:11.065Z,1019.34
2018-02-21T07:18:36.582Z,1019.34
2018-02-21T07:19:02.025Z,1019.33
2018-02-21T07:19:27.484Z,1019.35
2018-02-21T07:19:52.998Z,1019.3
2018-02-21T07:20:18.484Z,1019.32
2018-02-21T07:20:43.980Z,1019.29
2018-02-21T07:21:09.494Z,1019.32
2018-02-21T07:21:35.002Z,1019.29
2018-02-21T07:22:00.544Z,1019.27
2018-02-21T07:22:25.966Z,1019.28
2018-02-21T07:22:51.440Z,1019.3
2018-02-21T07:23:16.938Z,1019.26
2018-02-21T07:23:42.399Z,1019.27
2018-02-21T07:24:07.861Z,1019.27
2018-02-21T07:24:33.319Z,1019.25
2018-02-21T07:24:58.786Z,1019.27
2018-02-21T07:25:24.268Z,1019.24
2018-02-21T07:25:49.784Z,1019.23
2018-02-21T07:26:15.315Z,1019.21
2018-02-21T07:26:40.843Z,1019.21
2018-02-21T07:27:06.261Z,1019.25
2018-02-21T07:27:31.776Z,1019.22
2018-02-21T07:27:57.248Z,1019.23
2018-02-21T07:28:22.699Z,1019.27
2018-02-21T07:28:48.155Z,1019.21
2018-02-21T07:29:13.707Z,1019.22
2018-02-21T07:29:39.235Z,1019.24
2018-02-21T07:30:52.896Z,1019.23
2018-02-21T07:31:18.385Z,1019.22
2018-02-21T07:31:43.906Z,1019.2
2018-02-21T07:32:09.389Z,1019.19
2018-02-21T07:32:34.846Z,1019.28
2018-02-21T07:33:00.348Z,1019.24
2018-02-21T07:33:25.857Z,1019.22
2018-02-21T07:33:51.311Z,1019.21
2018-02-21T07:34:16.787Z,1019.22
2018-02-21T07:34:42.284Z,1019.21
2018-02-21T07:35:07.744Z,1019.2
2018-02-21T07:35:33.280Z,1019.25
2018-02-21T07:35:58.778Z,1019.23
2018-02-21T07:36:24.296Z,1019.27
2018-02-21T07:36:49.766Z,1019.3
2018-02-21T07:37:15.248Z,1019.25
2018-02-21T07:37:40.716Z,1019.31
2018-02-21T07:38:06.266Z,1019.31
2018-02-21T07:38:31.727Z,1019.28
2018-02-21T07:38:57.231Z,1019.3
2018-02-21T07:39:22.763Z,1019.28
2018-02-21T07:39:48.290Z,1019.3
2018-02-21T07:40:13.749Z,1019.31
2018-02-21T07:40:39.242Z,1019.3
2018-02-21T07:41:58.146Z,1019.29
2018-02-21T07:42:23.664Z,1019.29
2018-02-21T07:42:49.153Z,1019.28
2018-02-21T07:43:14.707Z,1019.25
2018-02-21T07:43:40.169Z,1019.25
2018-02-21T07:44:05.664Z,1019.27
2018-02-21T07:44:31.182Z,1019.23
2018-02-21T07:44:56.715Z,1019.25
2018-02-21T07:45:22.150Z,1019.22
2018-02-21T07:45:47.624Z,1019.16
2018-02-21T07:46:13.098Z,1019.24
2018-02-21T07:46:38.589Z,1019.22
2018-02-21T07:47:04.062Z,1019.23
2018-02-21T07:47:29.531Z,1019.25
2018-02-21T07:47:54.990Z,1019.2
2018-02-21T07:48:20.441Z,1019.19
2018-02-21T07:48:45.909Z,1019.21
2018-02-21T07:49:11.409Z,1019.19
2018-02-21T07:49:36.852Z,1019.18
2018-02-21T07:50:02.335Z,1019.22
2018-02-21T07:50:27.805Z,1019.2
2018-02-21T07:51:26.312Z,1019.21
2018-02-21T07:51:51.808Z,1019.22
2018-02-21T07:52:17.315Z,1019.21
2018-02-21T07:52:42.780Z,1019.24
2018-02-21T07:53:08.265Z,1019.19
2018-02-21T07:53:33.792Z,1019.21
2018-02-21T07:53:59.267Z,1019.18
2018-02-21T07:54:24.771Z,1019.22
2018-02-21T07:54:50.265Z,1019.19
2018-02-21T07:55:15.712Z,1019.16
2018-02-21T07:55:41.233Z,1019.19
2018-02-21T07:56:06.736Z,1019.17
2018-02-21T07:56:32.206Z,1019.22
2018-02-21T07:56:57.702Z,1019.17
2018-02-21T07:57:23.186Z,1019.16
2018-02-21T07:57:48.622Z,1019.16
2018-02-21T07:58:14.104Z,1019.15
2018-02-21T07:58:39.568Z,1019.14
2018-02-21T07:59:05.087Z,1019.17
2018-02-21T07:59:30.566Z,1019.14
2018-02-21T07:59:56.073Z,1019.18
2018-02-21T08:00:21.502Z,1019.21
2018-02-21T08:00:47.008Z,1019.16
2018-02-21T08:01:12.464Z,1019.19
2018-02-21T08:02:16.143Z,1019.21
2018-02-21T08:02:41.582Z,1019.21
2018-02-21T08:03:07.071Z,1019.18
2018-02-21T08:03:32.530Z,1019.14
2018-02-21T08:03:58.082Z,1019.25
2018-02-21T08:04:23.521Z,1019.22
2018-02-21T08:04:49.025Z,1019.23
2018-02-21T08:05:14.475Z,1019.28
2018-02-21T08:05:39.983Z,1019.29
2018-02-21T08:06:05.455Z,1019.3
2018-02-21T08:06:30.973Z,1019.33
2018-02-21T08:07:49.848Z,1019.35
2018-02-21T08:08:15.338Z,1019.31
2018-02-21T08:08:40.822Z,1019.41
2018-02-21T08:09:06.308Z,1019.32
2018-02-21T08:09:31.764Z,1019.38
2018-02-21T08:09:57.282Z,1019.42
2018-02-21T08:10:22.758Z,1019.4
2018-02-21T08:10:48.260Z,1019.44
2018-02-21T08:11:13.749Z,1019.38
2018-02-21T08:11:39.251Z,1019.37
2018-02-21T08:12:04.703Z,1019.37
2018-02-21T08:12:30.191Z,1019.43
2018-02-21T08:12:55.672Z,1019.4
2018-02-21T08:13:21.172Z,1019.38
2018-02-21T08:13:46.627Z,1019.38
2018-02-21T08:14:12.140Z,1019.43
2018-02-21T08:14:37.636Z,1019.44
2018-02-21T08:15:03.202Z,1019.46
2018-02-21T08:15:28.667Z,1019.51
2018-02-21T08:15:54.209Z,1019.48
2018-02-21T08:16:19.655Z,1019.5
2018-02-21T08:16:45.149Z,1019.53
2018-02-21T08:17:10.604Z,1019.52
2018-02-21T08:17:36.086Z,1019.49
2018-02-21T08:18:01.581Z,1019.51
2018-02-21T08:18:27.058Z,1019.51
2018-02-21T08:18:52.523Z,1019.52
2018-02-21T08:19:18.087Z,1019.53
2018-02-21T08:19:43.581Z,1019.51
2018-02-21T08:20:09.103Z,1019.53
2018-02-21T08:20:34.618Z,1019.55
2018-02-21T08:21:00.115Z,1019.55
2018-02-21T08:21:25.625Z,1019.56
2018-02-21T08:21:51.095Z,1019.53
2018-02-21T08:22:16.589Z,1019.54
2018-02-21T08:22:42.089Z,1019.56
2018-02-21T08:23:07.562Z,1019.51
2018-02-21T08:23:33.089Z,1019.53
2018-02-21T08:23:58.558Z,1019.55
2018-02-21T08:24:24.079Z,1019.51
2018-02-21T08:24:49.542Z,1019.56
2018-02-21T08:25:15.006Z,1019.57
2018-02-21T08:25:40.465Z,1019.58
2018-02-21T08:26:05.967Z,1019.59
2018-02-21T08:26:31.464Z,1019.57
2018-02-21T08:26:56.997Z,1019.6
2018-02-21T08:27:22.458Z,1019.6
2018-02-21T08:27:47.944Z,1019.6
2018-02-21T08:28:13.497Z,1019.59
2018-02-21T08:28:38.929Z,1019.63
2018-02-21T08:29:04.450Z,1019.62
2018-02-21T08:29:29.950Z,1019.6
2018-02-21T08:29:55.427Z,1019.61
2018-02-21T08:30:20.898Z,1019.59
2018-02-21T08:30:46.394Z,1019.61
2018-02-21T08:31:11.853Z,1019.65
2018-02-21T08:32:20.580Z,1019.67
2018-02-21T08:32:46.060Z,1019.64
2018-02-21T08:33:11.542Z,1019.68
2018-02-21T08:33:37.010Z,1019.63
2018-02-21T08:34:02.509Z,1019.67
2018-02-21T08:34:27.994Z,1019.65
2018-02-21T08:34:53.479Z,1019.66
2018-02-21T08:35:18.972Z,1019.62
2018-02-21T08:35:44.421Z,1019.63
2018-02-21T08:36:09.891Z,1019.6
2018-02-21T08:36:35.430Z,1019.62
2018-02-21T08:37:00.887Z,1019.62
2018-02-21T08:37:26.400Z,1019.6
2018-02-21T08:37:51.892Z,1019.66
2018-02-21T08:39:05.682Z,1019.55
2018-02-21T08:39:31.180Z,1019.57
2018-02-21T08:39:56.685Z,1019.56
2018-02-21T08:40:22.178Z,1019.6
2018-02-21T08:40:47.673Z,1019.55
2018-02-21T08:41:13.171Z,1019.6
2018-02-21T08:41:38.686Z,1019.56
2018-02-21T08:42:04.197Z,1019.58
2018-02-21T08:42:29.658Z,1019.54
2018-02-21T08:42:55.132Z,1019.52
2018-02-21T08:43:20.578Z,1019.55
2018-02-21T08:43:46.030Z,1019.52
2018-02-21T08:44:11.526Z,1019.5
2018-02-21T08:44:37.012Z,1019.51
2018-02-21T08:45:50.803Z,1019.51
2018-02-21T08:46:16.292Z,1019.54
2018-02-21T08:46:41.776Z,1019.49
2018-02-21T08:47:07.256Z,1019.52
2018-02-21T08:47:32.682Z,1019.54
2018-02-21T08:47:58.169Z,1019.52
2018-02-21T08:48:23.759Z,1019.51
2018-02-21T08:48:49.209Z,1019.5
2018-02-21T08:49:14.645Z,1019.44
2018-02-21T08:49:40.185Z,1019.51
2018-02-21T08:50:05.726Z,1019.52
2018-02-21T08:50:31.186Z,1019.47
2018-02-21T08:50:56.711Z,1019.46
2018-02-21T08:51:22.243Z,1019.5
2018-02-21T08:51:47.703Z,1019.49
2018-02-21T08:52:13.168Z,1019.49
2018-02-21T08:52:38.648Z,1019.49
2018-02-21T08:53:04.154Z,1019.5
2018-02-21T08:53:29.636Z,1019.49
2018-02-21T08:54:48.579Z,1019.46
2018-02-21T08:55:14.062Z,1019.48
2018-02-21T08:55:39.553Z,1019.48
2018-02-21T08:56:05.047Z,1019.45
2018-02-21T08:56:30.518Z,1019.47
2018-02-21T08:56:56.024Z,1019.53
2018-02-21T08:57:21.553Z,1019.46
2018-02-21T08:57:47.037Z,1019.44
2018-02-21T08:58:12.580Z,1019.47
2018-02-21T08:58:38.060Z,1019.42
2018-02-21T08:59:03.530Z,1019.41
2018-02-21T08:59:29.021Z,1019.44
2018-02-21T08:59:54.512Z,1019.45
2018-02-21T09:00:19.993Z,1019.49
2018-02-21T09:00:45.460Z,1019.41
2018-02-21T09:01:10.963Z,1019.47
2018-02-21T09:01:36.470Z,1019.48
2018-02-21T09:02:01.909Z,1019.47
2018-02-21T09:02:27.377Z,1019.47
2018-02-21T09:02:52.852Z,1019.46
2018-02-21T09:03:18.320Z,1019.44
2018-02-21T09:03:43.811Z,1019.48
2018-02-21T09:04:09.265Z,1019.48
2018-02-21T09:04:34.818Z,1019.49
2018-02-21T09:05:00.263Z,1019.44
2018-02-21T09:05:25.754Z,1019.46
2018-02-21T09:05:51.237Z,1019.5
2018-02-21T09:06:16.734Z,1019.51
2018-02-21T09:06:42.193Z,1019.5
2018-02-21T09:07:07.698Z,1019.51
2018-02-21T09:07:33.200Z,1019.48
2018-02-21T09:07:58.696Z,1019.51
2018-02-21T09:08:24.165Z,1019.53
2018-02-21T09:08:49.629Z,1019.48
2018-02-21T09:09:15.129Z,1019.53
2018-02-21T09:09:40.620Z,1019.49
2018-02-21T09:10:06.164Z,1019.51
2018-02-21T09:10:31.713Z,1019.5
2018-02-21T09:10:57.190Z,1019.53
2018-02-21T09:11:22.707Z,1019.49
2018-02-21T09:11:48.203Z,1019.49
2018-02-21T09:12:13.673Z,1019.51
2018-02-21T09:12:39.152Z,1019.52
2018-02-21T09:13:04.665Z,1019.47
2018-02-21T09:13:30.164Z,1019.46
2018-02-21T09:13:55.641Z,1019.48
2018-02-21T09:14:21.151Z,1019.48
2018-02-21T09:15:24.742Z,1019.48
2018-02-21T09:15:50.245Z,1019.51
2018-02-21T09:16:15.736Z,1019.51
2018-02-21T09:16:41.294Z,1019.56
2018-02-21T09:17:06.738Z,1019.53
2018-02-21T09:17:32.212Z,1019.57
2018-02-21T09:17:57.691Z,1019.54
2018-02-21T09:18:23.187Z,1019.59
2018-02-21T09:18:48.643Z,1019.56
2018-02-21T09:19:14.163Z,1019.55
2018-02-21T09:19:39.657Z,1019.6
2018-02-21T09:20:05.173Z,1019.59
2018-02-21T09:20:30.687Z,1019.62
2018-02-21T09:20:56.086Z,1019.59
2018-02-21T09:21:21.630Z,1019.64
2018-02-21T09:21:47.061Z,1019.61
2018-02-21T09:22:12.552Z,1019.62
2018-02-21T09:22:38.055Z,1019.64
2018-02-21T09:23:03.581Z,1019.63
2018-02-21T09:23:29.047Z,1019.66
2018-02-21T09:23:54.543Z,1019.63
2018-02-21T09:24:20.030Z,1019.61
2018-02-21T09:24:45.536Z,1019.67
2018-02-21T09:25:11.038Z,1019.61
2018-02-21T09:25:36.535Z,1019.62
2018-02-21T09:26:02.024Z,1019.62
2018-02-21T09:26:27.505Z,1019.62
2018-02-21T09:26:53.047Z,1019.64
2018-02-21T09:27:18.560Z,1019.63
2018-02-21T09:27:44.054Z,1019.62
2018-02-21T09:28:09.490Z,1019.67
2018-02-21T09:28:35.122Z,1019.68
2018-02-21T09:29:00.512Z,1019.67
2018-02-21T09:29:26.072Z,1019.66
2018-02-21T09:29:51.515Z,1019.66
2018-02-21T09:30:55.109Z,1019.67
2018-02-21T09:31:20.586Z,1019.64
2018-02-21T09:31:46.085Z,1019.62
2018-02-21T09:32:11.539Z,1019.69
2018-02-21T09:32:37.023Z,1019.69
2018-02-21T09:33:02.540Z,1019.65
2018-02-21T09:33:28.144Z,1019.63
2018-02-21T09:33:53.741Z,1019.6
2018-02-21T09:34:19.237Z,1019.66
2018-02-21T09:34:44.691Z,1019.69
2018-02-21T09:35:10.201Z,1019.67
2018-02-21T09:35:35.657Z,1019.63
2018-02-21T09:36:01.127Z,1019.67
2018-02-21T09:36:26.582Z,1019.67
2018-02-21T09:37:25.161Z,1019.65
2018-02-21T09:37:50.656Z,1019.65
2018-02-21T09:38:16.151Z,1019.71
2018-02-21T09:38:41.644Z,1019.62
2018-02-21T09:39:07.135Z,1019.62
2018-02-21T09:39:32.656Z,1019.61
2018-02-21T09:39:58.166Z,1019.63
2018-02-21T09:40:23.641Z,1019.65
2018-02-21T09:40:49.118Z,1019.66
2018-02-21T09:41:14.563Z,1019.62
2018-02-21T09:41:40.040Z,1019.66
2018-02-21T09:42:05.518Z,1019.63
2018-02-21T09:42:31.013Z,1019.65
2018-02-21T09:42:56.553Z,1019.66
2018-02-21T09:43:21.980Z,1019.63
2018-02-21T09:43:47.478Z,1019.66
2018-02-21T09:44:12.970Z,1019.59
2018-02-21T09:44:38.444Z,1019.64
2018-02-21T09:45:03.906Z,1019.67
2018-02-21T09:45:29.398Z,1019.68
2018-02-21T09:45:54.897Z,1019.71
2018-02-21T09:46:20.387Z,1019.67
2018-02-21T09:46:45.847Z,1019.67
2018-02-21T09:47:11.374Z,1019.73
2018-02-21T09:47:36.809Z,1019.71
2018-02-21T09:48:02.289Z,1019.76
2018-02-21T09:48:27.778Z,1019.76
2018-02-21T09:48:53.272Z,1019.74
2018-02-21T09:49:18.781Z,1019.73
2018-02-21T09:49:44.391Z,1019.78
2018-02-21T09:50:09.909Z,1019.75
2018-02-21T09:50:35.377Z,1019.81
2018-02-21T09:51:00.869Z,1019.76
2018-02-21T09:51:26.346Z,1019.75
2018-02-21T09:51:51.845Z,1019.82
2018-02-21T09:52:17.284Z,1019.83
2018-02-21T09:52:42.892Z,1019.79
2018-02-21T09:53:08.277Z,1019.86
2018-02-21T09:53:33.746Z,1019.85
2018-02-21T09:53:59.203Z,1019.85
2018-02-21T09:54:24.658Z,1019.84
2018-02-21T09:54:50.162Z,1019.87
2018-02-21T09:55:15.677Z,1019.82
2018-02-21T09:55:41.201Z,1019.81
2018-02-21T09:56:06.709Z,1019.8
2018-02-21T09:56:32.213Z,1019.81
2018-02-21T09:57:35.846Z,1019.82
2018-02-21T09:58:01.361Z,1019.82
2018-02-21T09:58:26.835Z,1019.77
2018-02-21T09:58:52.295Z,1019.76
2018-02-21T09:59:17.816Z,1019.76
2018-02-21T09:59:43.273Z,1019.76
2018-02-21T10:00:08.820Z,1019.76
2018-02-21T10:00:34.329Z,1019.73
2018-02-21T10:00:59.870Z,1019.74
2018-02-21T10:01:25.328Z,1019.76
2018-02-21T10:01:50.813Z,1019.76
2018-02-21T10:02:16.288Z,1019.81
2018-02-21T10:02:41.798Z,1019.75
2018-02-21T10:03:07.285Z,1019.7
2018-02-21T10:03:32.809Z,1019.72
2018-02-21T10:03:58.291Z,1019.71
2018-02-21T10:04:23.770Z,1019.7
2018-02-21T10:04:49.304Z,1019.73
2018-02-21T10:05:14.775Z,1019.65
2018-02-21T10:05:40.285Z,1019.65
2018-02-21T10:06:05.773Z,1019.68
2018-02-21T10:06:31.228Z,1019.65
2018-02-21T10:06:56.702Z,1019.64
2018-02-21T10:07:22.211Z,1019.71
2018-02-21T10:07:47.697Z,1019.68
2018-02-21T10:08:13.223Z,1019.62
2018-02-21T10:08:38.698Z,1019.6
2018-02-21T10:09:04.158Z,1019.62
2018-02-21T10:09:29.612Z,1019.65
2018-02-21T10:09:55.111Z,1019.6
2018-02-21T10:10:20.654Z,1019.64
2018-02-21T10:10:46.194Z,1019.66
2018-02-21T10:11:11.668Z,1019.69
2018-02-21T10:11:37.194Z,1019.7
2018-02-21T10:12:02.713Z,1019.71
2018-02-21T10:12:28.167Z,1019.7
2018-02-21T10:12:53.670Z,1019.68
2018-02-21T10:13:57.264Z,1019.72
2018-02-21T10:14:22.731Z,1019.7
2018-02-21T10:14:48.210Z,1019.73
2018-02-21T10:15:13.720Z,1019.78
2018-02-21T10:15:39.219Z,1019.75
2018-02-21T10:16:58.151Z,1019.84
2018-02-21T10:17:23.653Z,1019.76
2018-02-21T10:17:49.154Z,1019.71
2018-02-21T10:18:14.733Z,1019.77
2018-02-21T10:18:40.171Z,1019.8
2018-02-21T10:19:05.661Z,1019.75
2018-02-21T10:19:31.149Z,1019.75
2018-02-21T10:19:56.634Z,1019.76
2018-02-21T10:20:22.142Z,1019.79
2018-02-21T10:20:47.621Z,1019.73
2018-02-21T10:21:46.148Z,1019.76
2018-02-21T10:22:11.647Z,1019.79
2018-02-21T10:22:37.153Z,1019.77
2018-02-21T10:23:02.688Z,1019.82
2018-02-21T10:23:28.189Z,1019.78
2018-02-21T10:23:53.659Z,1019.78
2018-02-21T10:24:19.180Z,1019.83
2018-02-21T10:24:44.637Z,1019.75
2018-02-21T10:25:10.147Z,1019.74
2018-02-21T10:25:35.688Z,1019.79
2018-02-21T10:26:01.108Z,1019.77
2018-02-21T10:26:26.564Z,1019.75
2018-02-21T10:26:52.043Z,1019.81
2018-02-21T10:27:17.531Z,1019.81
2018-02-21T10:27:43.038Z,1019.8